sensor_id;sensor_type;location;lat;lon;timestamp;P1;durP1;ratioP1;P2;durP2;ratioP2
23001;SDS011;11667;51.706;4.856;2023-05-10T00:01:38;53.40;;;17.17;;
23001;SDS011;11667;51.706;4.856;2023-05-10T00:04:08;52.03;;;16.73;;
23001;SDS011;11667;51.706;4.856;2023-05-10T00:06:37;46.18;;;15.80;;
23001;SDS011;11667;51.706;4.856;2023-05-10T00:09:06;46.33;;;15.20;;
23001;SDS011;11667;51.706;4.856;2023-05-10T00:11:36;54.03;;;17.90;;
23001;SDS011;11667;51.706;4.856;2023-05-10T00:14:05;54.23;;;16.87;;
23001;SDS011;11667;51.706;4.856;2023-05-10T00:16:35;59.27;;;17.87;;
23001;SDS011;11667;51.706;4.856;2023-05-10T00:19:04;57.75;;;17.48;;
23001;SDS011;11667;51.706;4.856;2023-05-10T00:21:34;61.60;;;17.82;;
23001;SDS011;11667;51.706;4.856;2023-05-10T00:24:03;60.28;;;16.70;;
23001;SDS011;11667;51.706;4.856;2023-05-10T00:26:33;59.42;;;17.82;;
23001;SDS011;11667;51.706;4.856;2023-05-10T00:29:03;59.88;;;17.57;;
23001;SDS011;11667;51.706;4.856;2023-05-10T00:31:32;61.98;;;18.60;;
23001;SDS011;11667;51.706;4.856;2023-05-10T00:34:02;62.67;;;17.62;;
23001;SDS011;11667;51.706;4.856;2023-05-10T00:36:31;64.75;;;18.07;;
23001;SDS011;11667;51.706;4.856;2023-05-10T00:39:00;61.25;;;18.10;;
23001;SDS011;11667;51.706;4.856;2023-05-10T00:41:31;63.45;;;16.82;;
23001;SDS011;11667;51.706;4.856;2023-05-10T00:44:01;59.67;;;18.55;;
23001;SDS011;11667;51.706;4.856;2023-05-10T00:46:31;62.10;;;17.32;;
23001;SDS011;11667;51.706;4.856;2023-05-10T00:49:01;64.37;;;18.17;;
23001;SDS011;11667;51.706;4.856;2023-05-10T00:51:31;58.00;;;16.85;;
23001;SDS011;11667;51.706;4.856;2023-05-10T00:54:00;62.38;;;17.30;;
23001;SDS011;11667;51.706;4.856;2023-05-10T00:56:29;61.55;;;17.30;;
23001;SDS011;11667;51.706;4.856;2023-05-10T00:58:59;57.23;;;17.23;;
23001;SDS011;11667;51.706;4.856;2023-05-10T01:01:28;59.30;;;16.75;;
23001;SDS011;11667;51.706;4.856;2023-05-10T01:03:59;57.33;;;17.42;;
23001;SDS011;11667;51.706;4.856;2023-05-10T01:06:28;57.45;;;16.07;;
23001;SDS011;11667;51.706;4.856;2023-05-10T01:08:58;56.37;;;16.95;;
23001;SDS011;11667;51.706;4.856;2023-05-10T01:11:27;55.05;;;15.98;;
23001;SDS011;11667;51.706;4.856;2023-05-10T01:13:57;62.53;;;16.57;;
23001;SDS011;11667;51.706;4.856;2023-05-10T01:16:26;53.42;;;16.67;;
23001;SDS011;11667;51.706;4.856;2023-05-10T01:18:57;52.83;;;15.75;;
23001;SDS011;11667;51.706;4.856;2023-05-10T01:21:33;52.98;;;15.72;;
23001;SDS011;11667;51.706;4.856;2023-05-10T01:27:13;53.65;;;14.90;;
23001;SDS011;11667;51.706;4.856;2023-05-10T01:38:42;47.35;;;15.15;;
23001;SDS011;11667;51.706;4.856;2023-05-10T01:44:24;47.38;;;16.30;;
23001;SDS011;11667;51.706;4.856;2023-05-10T01:47:16;52.43;;;15.63;;
23001;SDS011;11667;51.706;4.856;2023-05-10T01:49:52;44.50;;;15.55;;
23001;SDS011;11667;51.706;4.856;2023-05-10T01:52:25;50.78;;;15.10;;
23001;SDS011;11667;51.706;4.856;2023-05-10T01:55:02;43.52;;;15.28;;
23001;SDS011;11667;51.706;4.856;2023-05-10T01:57:39;43.25;;;15.18;;
23001;SDS011;11667;51.706;4.856;2023-05-10T02:00:07;44.27;;;15.28;;
23001;SDS011;11667;51.706;4.856;2023-05-10T02:02:41;47.50;;;14.85;;
23001;SDS011;11667;51.706;4.856;2023-05-10T02:05:13;42.05;;;14.58;;
23001;SDS011;11667;51.706;4.856;2023-05-10T02:07:43;43.87;;;14.50;;
23001;SDS011;11667;51.706;4.856;2023-05-10T02:10:14;39.78;;;15.43;;
23001;SDS011;11667;51.706;4.856;2023-05-10T02:12:44;41.70;;;15.30;;
23001;SDS011;11667;51.706;4.856;2023-05-10T02:15:17;46.40;;;16.35;;
23001;SDS011;11667;51.706;4.856;2023-05-10T02:20:17;47.58;;;15.75;;
23001;SDS011;11667;51.706;4.856;2023-05-10T02:22:48;52.17;;;18.42;;
23001;SDS011;11667;51.706;4.856;2023-05-10T02:25:19;47.97;;;18.13;;
23001;SDS011;11667;51.706;4.856;2023-05-10T02:27:49;56.23;;;20.32;;
23001;SDS011;11667;51.706;4.856;2023-05-10T02:30:21;62.03;;;20.27;;
23001;SDS011;11667;51.706;4.856;2023-05-10T02:32:51;54.73;;;20.75;;
23001;SDS011;11667;51.706;4.856;2023-05-10T02:35:22;53.65;;;19.67;;
23001;SDS011;11667;51.706;4.856;2023-05-10T02:37:52;56.25;;;19.82;;
23001;SDS011;11667;51.706;4.856;2023-05-10T02:40:23;62.93;;;20.17;;
23001;SDS011;11667;51.706;4.856;2023-05-10T02:42:56;66.72;;;19.90;;
23001;SDS011;11667;51.706;4.856;2023-05-10T02:45:27;65.03;;;19.67;;
23001;SDS011;11667;51.706;4.856;2023-05-10T02:47:58;64.03;;;19.85;;
23001;SDS011;11667;51.706;4.856;2023-05-10T02:50:28;66.35;;;20.80;;
23001;SDS011;11667;51.706;4.856;2023-05-10T02:53:00;70.67;;;20.97;;
23001;SDS011;11667;51.706;4.856;2023-05-10T02:55:36;69.40;;;21.93;;
23001;SDS011;11667;51.706;4.856;2023-05-10T02:58:03;82.33;;;22.42;;
23001;SDS011;11667;51.706;4.856;2023-05-10T03:00:33;78.80;;;23.30;;
23001;SDS011;11667;51.706;4.856;2023-05-10T03:03:03;83.65;;;23.10;;
23001;SDS011;11667;51.706;4.856;2023-05-10T03:05:33;91.42;;;23.77;;
23001;SDS011;11667;51.706;4.856;2023-05-10T03:08:03;84.62;;;23.15;;
23001;SDS011;11667;51.706;4.856;2023-05-10T03:10:34;89.13;;;23.55;;
23001;SDS011;11667;51.706;4.856;2023-05-10T03:13:16;81.25;;;23.95;;
23001;SDS011;11667;51.706;4.856;2023-05-10T03:16:05;88.45;;;25.23;;
23001;SDS011;11667;51.706;4.856;2023-05-10T03:18:50;77.40;;;23.40;;
23001;SDS011;11667;51.706;4.856;2023-05-10T03:21:19;99.32;;;25.48;;
23001;SDS011;11667;51.706;4.856;2023-05-10T03:23:51;81.57;;;23.90;;
23001;SDS011;11667;51.706;4.856;2023-05-10T03:26:28;89.65;;;25.30;;
23001;SDS011;11667;51.706;4.856;2023-05-10T03:29:03;92.88;;;26.35;;
23001;SDS011;11667;51.706;4.856;2023-05-10T03:31:33;83.15;;;24.47;;
23001;SDS011;11667;51.706;4.856;2023-05-10T03:34:04;92.95;;;25.77;;
23001;SDS011;11667;51.706;4.856;2023-05-10T03:36:34;88.10;;;25.40;;
23001;SDS011;11667;51.706;4.856;2023-05-10T03:39:04;93.82;;;26.23;;
23001;SDS011;11667;51.706;4.856;2023-05-10T03:41:33;100.35;;;27.50;;
23001;SDS011;11667;51.706;4.856;2023-05-10T03:44:03;98.50;;;28.25;;
23001;SDS011;11667;51.706;4.856;2023-05-10T03:46:32;92.85;;;28.35;;
23001;SDS011;11667;51.706;4.856;2023-05-10T03:49:02;76.62;;;25.55;;
23001;SDS011;11667;51.706;4.856;2023-05-10T03:51:31;78.55;;;23.90;;
23001;SDS011;11667;51.706;4.856;2023-05-10T03:54:01;77.03;;;24.72;;
23001;SDS011;11667;51.706;4.856;2023-05-10T03:56:30;70.57;;;22.48;;
23001;SDS011;11667;51.706;4.856;2023-05-10T03:59:00;64.55;;;22.17;;
23001;SDS011;11667;51.706;4.856;2023-05-10T04:01:31;68.80;;;22.50;;
23001;SDS011;11667;51.706;4.856;2023-05-10T04:04:01;66.37;;;22.10;;
23001;SDS011;11667;51.706;4.856;2023-05-10T04:06:31;64.30;;;22.77;;
23001;SDS011;11667;51.706;4.856;2023-05-10T04:09:00;63.90;;;22.42;;
23001;SDS011;11667;51.706;4.856;2023-05-10T04:11:31;64.90;;;22.62;;
23001;SDS011;11667;51.706;4.856;2023-05-10T04:14:01;56.83;;;21.07;;
23001;SDS011;11667;51.706;4.856;2023-05-10T04:16:30;63.78;;;21.50;;
23001;SDS011;11667;51.706;4.856;2023-05-10T04:18:59;60.00;;;20.32;;
23001;SDS011;11667;51.706;4.856;2023-05-10T04:21:29;53.28;;;19.90;;
23001;SDS011;11667;51.706;4.856;2023-05-10T04:23:58;54.90;;;20.08;;
23001;SDS011;11667;51.706;4.856;2023-05-10T04:26:27;53.63;;;19.15;;
23001;SDS011;11667;51.706;4.856;2023-05-10T04:28:57;51.98;;;19.20;;
23001;SDS011;11667;51.706;4.856;2023-05-10T04:31:27;49.65;;;19.73;;
23001;SDS011;11667;51.706;4.856;2023-05-10T04:33:56;49.45;;;19.70;;
23001;SDS011;11667;51.706;4.856;2023-05-10T04:36:25;48.38;;;18.73;;
23001;SDS011;11667;51.706;4.856;2023-05-10T04:38:55;52.05;;;18.82;;
23001;SDS011;11667;51.706;4.856;2023-05-10T04:41:24;53.17;;;19.67;;
23001;SDS011;11667;51.706;4.856;2023-05-10T04:43:54;51.73;;;18.40;;
23001;SDS011;11667;51.706;4.856;2023-05-10T04:46:24;53.20;;;18.90;;
23001;SDS011;11667;51.706;4.856;2023-05-10T04:48:53;52.95;;;19.35;;
23001;SDS011;11667;51.706;4.856;2023-05-10T04:51:23;51.42;;;18.77;;
23001;SDS011;11667;51.706;4.856;2023-05-10T04:53:52;50.80;;;18.87;;
23001;SDS011;11667;51.706;4.856;2023-05-10T04:56:24;50.30;;;18.57;;
23001;SDS011;11667;51.706;4.856;2023-05-10T04:58:53;55.58;;;19.17;;
23001;SDS011;11667;51.706;4.856;2023-05-10T05:01:22;51.65;;;18.37;;
23001;SDS011;11667;51.706;4.856;2023-05-10T05:03:52;52.58;;;19.52;;
23001;SDS011;11667;51.706;4.856;2023-05-10T05:06:22;58.98;;;20.48;;
23001;SDS011;11667;51.706;4.856;2023-05-10T05:08:53;54.58;;;20.45;;
23001;SDS011;11667;51.706;4.856;2023-05-10T05:11:22;60.55;;;21.82;;
23001;SDS011;11667;51.706;4.856;2023-05-10T05:13:53;56.28;;;20.60;;
23001;SDS011;11667;51.706;4.856;2023-05-10T05:16:22;54.77;;;21.02;;
23001;SDS011;11667;51.706;4.856;2023-05-10T05:18:52;66.35;;;22.45;;
23001;SDS011;11667;51.706;4.856;2023-05-10T05:21:22;65.15;;;22.87;;
23001;SDS011;11667;51.706;4.856;2023-05-10T05:23:52;63.15;;;22.73;;
23001;SDS011;11667;51.706;4.856;2023-05-10T05:26:22;60.30;;;22.32;;
23001;SDS011;11667;51.706;4.856;2023-05-10T05:28:51;62.65;;;22.90;;
23001;SDS011;11667;51.706;4.856;2023-05-10T05:31:22;57.45;;;21.45;;
23001;SDS011;11667;51.706;4.856;2023-05-10T05:33:51;67.95;;;23.18;;
23001;SDS011;11667;51.706;4.856;2023-05-10T05:36:21;60.08;;;22.42;;
23001;SDS011;11667;51.706;4.856;2023-05-10T05:38:50;70.65;;;22.90;;
23001;SDS011;11667;51.706;4.856;2023-05-10T05:41:20;73.10;;;23.27;;
23001;SDS011;11667;51.706;4.856;2023-05-10T05:43:49;69.77;;;23.47;;
23001;SDS011;11667;51.706;4.856;2023-05-10T05:46:19;65.67;;;22.40;;
23001;SDS011;11667;51.706;4.856;2023-05-10T05:48:48;62.80;;;21.42;;
23001;SDS011;11667;51.706;4.856;2023-05-10T05:51:18;62.03;;;21.52;;
23001;SDS011;11667;51.706;4.856;2023-05-10T05:53:47;53.40;;;18.50;;
23001;SDS011;11667;51.706;4.856;2023-05-10T05:56:17;48.78;;;18.35;;
23001;SDS011;11667;51.706;4.856;2023-05-10T05:58:48;45.80;;;17.77;;
23001;SDS011;11667;51.706;4.856;2023-05-10T06:01:17;42.25;;;17.05;;
23001;SDS011;11667;51.706;4.856;2023-05-10T06:03:46;42.60;;;17.10;;
23001;SDS011;11667;51.706;4.856;2023-05-10T06:06:18;39.53;;;16.10;;
23001;SDS011;11667;51.706;4.856;2023-05-10T06:08:47;40.03;;;14.93;;
23001;SDS011;11667;51.706;4.856;2023-05-10T06:11:16;37.38;;;14.23;;
23001;SDS011;11667;51.706;4.856;2023-05-10T06:13:46;37.70;;;14.95;;
23001;SDS011;11667;51.706;4.856;2023-05-10T06:16:16;34.43;;;14.35;;
23001;SDS011;11667;51.706;4.856;2023-05-10T06:18:46;30.90;;;12.60;;
23001;SDS011;11667;51.706;4.856;2023-05-10T06:21:15;28.80;;;12.00;;
23001;SDS011;11667;51.706;4.856;2023-05-10T06:23:44;24.90;;;11.43;;
23001;SDS011;11667;51.706;4.856;2023-05-10T06:26:14;25.72;;;10.05;;
23001;SDS011;11667;51.706;4.856;2023-05-10T06:28:43;27.20;;;10.80;;
23001;SDS011;11667;51.706;4.856;2023-05-10T06:31:13;26.35;;;10.85;;
23001;SDS011;11667;51.706;4.856;2023-05-10T06:33:42;30.12;;;10.95;;
23001;SDS011;11667;51.706;4.856;2023-05-10T06:36:12;29.90;;;12.20;;
23001;SDS011;11667;51.706;4.856;2023-05-10T06:38:41;26.93;;;10.80;;
23001;SDS011;11667;51.706;4.856;2023-05-10T06:41:11;24.07;;;11.08;;
23001;SDS011;11667;51.706;4.856;2023-05-10T06:43:40;26.50;;;11.12;;
23001;SDS011;11667;51.706;4.856;2023-05-10T06:46:10;26.75;;;11.00;;
23001;SDS011;11667;51.706;4.856;2023-05-10T06:48:40;26.55;;;11.10;;
23001;SDS011;11667;51.706;4.856;2023-05-10T06:51:09;18.87;;;9.70;;
23001;SDS011;11667;51.706;4.856;2023-05-10T06:53:39;25.70;;;10.85;;
23001;SDS011;11667;51.706;4.856;2023-05-10T06:56:10;25.82;;;10.95;;
23001;SDS011;11667;51.706;4.856;2023-05-10T06:58:39;22.37;;;11.05;;
23001;SDS011;11667;51.706;4.856;2023-05-10T07:01:09;21.50;;;9.75;;
23001;SDS011;11667;51.706;4.856;2023-05-10T07:03:38;18.50;;;10.43;;
23001;SDS011;11667;51.706;4.856;2023-05-10T07:06:08;21.42;;;9.65;;
23001;SDS011;11667;51.706;4.856;2023-05-10T07:08:39;24.32;;;11.12;;
23001;SDS011;11667;51.706;4.856;2023-05-10T07:11:09;21.60;;;9.38;;
23001;SDS011;11667;51.706;4.856;2023-05-10T07:13:38;21.87;;;9.63;;
23001;SDS011;11667;51.706;4.856;2023-05-10T07:16:10;17.55;;;8.53;;
23001;SDS011;11667;51.706;4.856;2023-05-10T07:18:39;15.75;;;7.03;;
23001;SDS011;11667;51.706;4.856;2023-05-10T07:21:09;13.45;;;7.08;;
23001;SDS011;11667;51.706;4.856;2023-05-10T07:23:38;16.23;;;7.72;;
23001;SDS011;11667;51.706;4.856;2023-05-10T07:26:10;14.90;;;7.58;;
23001;SDS011;11667;51.706;4.856;2023-05-10T07:28:39;13.40;;;6.72;;
23001;SDS011;11667;51.706;4.856;2023-05-10T07:31:08;12.55;;;6.55;;
23001;SDS011;11667;51.706;4.856;2023-05-10T07:33:38;12.82;;;6.47;;
23001;SDS011;11667;51.706;4.856;2023-05-10T07:36:08;10.55;;;6.05;;
23001;SDS011;11667;51.706;4.856;2023-05-10T07:38:37;11.48;;;5.10;;
23001;SDS011;11667;51.706;4.856;2023-05-10T07:41:07;11.30;;;5.30;;
23001;SDS011;11667;51.706;4.856;2023-05-10T07:43:37;9.68;;;5.05;;
23001;SDS011;11667;51.706;4.856;2023-05-10T07:46:07;8.88;;;4.47;;
23001;SDS011;11667;51.706;4.856;2023-05-10T07:48:38;8.00;;;4.95;;
23001;SDS011;11667;51.706;4.856;2023-05-10T07:51:07;9.10;;;4.67;;
23001;SDS011;11667;51.706;4.856;2023-05-10T07:53:38;8.15;;;5.42;;
23001;SDS011;11667;51.706;4.856;2023-05-10T07:56:27;9.45;;;5.60;;
23001;SDS011;11667;51.706;4.856;2023-05-10T07:58:59;10.28;;;6.28;;
23001;SDS011;11667;51.706;4.856;2023-05-10T08:01:30;10.82;;;6.80;;
23001;SDS011;11667;51.706;4.856;2023-05-10T08:04:00;8.15;;;5.85;;
23001;SDS011;11667;51.706;4.856;2023-05-10T08:06:30;12.23;;;6.20;;
23001;SDS011;11667;51.706;4.856;2023-05-10T08:09:00;8.70;;;4.85;;
23001;SDS011;11667;51.706;4.856;2023-05-10T08:11:29;9.08;;;5.42;;
23001;SDS011;11667;51.706;4.856;2023-05-10T08:14:01;10.00;;;5.70;;
23001;SDS011;11667;51.706;4.856;2023-05-10T08:16:30;9.73;;;5.90;;
23001;SDS011;11667;51.706;4.856;2023-05-10T08:19:00;8.28;;;5.97;;
23001;SDS011;11667;51.706;4.856;2023-05-10T08:21:29;11.65;;;6.60;;
23001;SDS011;11667;51.706;4.856;2023-05-10T08:23:59;9.13;;;5.60;;
23001;SDS011;11667;51.706;4.856;2023-05-10T08:26:28;9.93;;;6.35;;
23001;SDS011;11667;51.706;4.856;2023-05-10T08:28:58;10.93;;;5.72;;
23001;SDS011;11667;51.706;4.856;2023-05-10T08:31:28;10.08;;;6.28;;
23001;SDS011;11667;51.706;4.856;2023-05-10T08:33:58;9.75;;;6.50;;
23001;SDS011;11667;51.706;4.856;2023-05-10T08:36:28;8.68;;;6.00;;
23001;SDS011;11667;51.706;4.856;2023-05-10T08:38:57;10.90;;;6.17;;
23001;SDS011;11667;51.706;4.856;2023-05-10T08:41:27;9.63;;;5.87;;
23001;SDS011;11667;51.706;4.856;2023-05-10T08:43:56;11.65;;;6.25;;
23001;SDS011;11667;51.706;4.856;2023-05-10T08:46:25;11.73;;;6.35;;
23001;SDS011;11667;51.706;4.856;2023-05-10T08:48:56;10.13;;;5.53;;
23001;SDS011;11667;51.706;4.856;2023-05-10T08:51:26;8.33;;;5.35;;
23001;SDS011;11667;51.706;4.856;2023-05-10T08:53:56;12.37;;;6.05;;
23001;SDS011;11667;51.706;4.856;2023-05-10T08:56:25;9.88;;;5.80;;
23001;SDS011;11667;51.706;4.856;2023-05-10T08:58:55;9.50;;;5.87;;
23001;SDS011;11667;51.706;4.856;2023-05-10T09:01:25;10.05;;;6.53;;
23001;SDS011;11667;51.706;4.856;2023-05-10T09:03:56;10.20;;;6.33;;
23001;SDS011;11667;51.706;4.856;2023-05-10T09:06:25;10.63;;;6.70;;
23001;SDS011;11667;51.706;4.856;2023-05-10T09:08:56;13.60;;;7.37;;
23001;SDS011;11667;51.706;4.856;2023-05-10T09:11:26;11.12;;;7.15;;
23001;SDS011;11667;51.706;4.856;2023-05-10T09:13:57;9.05;;;6.22;;
23001;SDS011;11667;51.706;4.856;2023-05-10T09:16:26;11.03;;;6.40;;
23001;SDS011;11667;51.706;4.856;2023-05-10T09:18:56;9.70;;;6.37;;
23001;SDS011;11667;51.706;4.856;2023-05-10T09:21:25;11.12;;;6.62;;
23001;SDS011;11667;51.706;4.856;2023-05-10T09:23:55;9.35;;;5.40;;
23001;SDS011;11667;51.706;4.856;2023-05-10T09:26:24;10.48;;;6.25;;
23001;SDS011;11667;51.706;4.856;2023-05-10T09:28:55;8.33;;;5.28;;
23001;SDS011;11667;51.706;4.856;2023-05-10T09:31:42;7.45;;;5.05;;
23001;SDS011;11667;51.706;4.856;2023-05-10T09:33:59;7.28;;;4.83;;
23001;SDS011;11667;51.706;4.856;2023-05-10T09:36:28;8.38;;;5.05;;
23001;SDS011;11667;51.706;4.856;2023-05-10T09:38:57;8.15;;;5.37;;
23001;SDS011;11667;51.706;4.856;2023-05-10T09:41:27;8.65;;;5.15;;
23001;SDS011;11667;51.706;4.856;2023-05-10T09:43:56;7.65;;;5.42;;
23001;SDS011;11667;51.706;4.856;2023-05-10T09:46:25;8.43;;;5.50;;
23001;SDS011;11667;51.706;4.856;2023-05-10T09:48:55;7.60;;;5.35;;
23001;SDS011;11667;51.706;4.856;2023-05-10T09:51:25;9.80;;;5.67;;
23001;SDS011;11667;51.706;4.856;2023-05-10T09:56:35;8.05;;;5.05;;
23001;SDS011;11667;51.706;4.856;2023-05-10T11:24:50;7.53;;;4.20;;
23001;SDS011;11667;51.706;4.856;2023-05-10T11:27:16;5.03;;;3.75;;
23001;SDS011;11667;51.706;4.856;2023-05-10T11:29:45;7.00;;;3.77;;
23001;SDS011;11667;51.706;4.856;2023-05-10T11:32:15;7.42;;;3.47;;
23001;SDS011;11667;51.706;4.856;2023-05-10T11:34:46;5.97;;;3.33;;
23001;SDS011;11667;51.706;4.856;2023-05-10T11:37:17;4.90;;;3.17;;
23001;SDS011;11667;51.706;4.856;2023-05-10T11:39:47;4.55;;;3.00;;
23001;SDS011;11667;51.706;4.856;2023-05-10T11:42:17;4.20;;;2.52;;
23001;SDS011;11667;51.706;4.856;2023-05-10T11:44:46;7.33;;;3.55;;
23001;SDS011;11667;51.706;4.856;2023-05-10T11:47:16;5.37;;;3.12;;
23001;SDS011;11667;51.706;4.856;2023-05-10T11:49:46;5.87;;;3.80;;
23001;SDS011;11667;51.706;4.856;2023-05-10T11:52:17;7.12;;;4.30;;
23001;SDS011;11667;51.706;4.856;2023-05-10T11:54:50;7.13;;;4.87;;
23001;SDS011;11667;51.706;4.856;2023-05-10T11:57:25;7.28;;;4.20;;
23001;SDS011;11667;51.706;4.856;2023-05-10T11:59:53;7.62;;;4.47;;
23001;SDS011;11667;51.706;4.856;2023-05-10T12:02:24;6.00;;;3.45;;
23001;SDS011;11667;51.706;4.856;2023-05-10T12:04:54;6.75;;;3.75;;
23001;SDS011;11667;51.706;4.856;2023-05-10T12:07:25;7.47;;;3.60;;
23001;SDS011;11667;51.706;4.856;2023-05-10T12:10:05;5.85;;;3.58;;
23001;SDS011;11667;51.706;4.856;2023-05-10T12:12:36;5.12;;;3.30;;
23001;SDS011;11667;51.706;4.856;2023-05-10T12:15:11;5.33;;;3.20;;
23001;SDS011;11667;51.706;4.856;2023-05-10T12:17:48;7.10;;;2.52;;
23001;SDS011;11667;51.706;4.856;2023-05-10T12:20:22;4.65;;;2.80;;
23001;SDS011;11667;51.706;4.856;2023-05-10T12:22:53;4.15;;;2.83;;
23001;SDS011;11667;51.706;4.856;2023-05-10T12:25:29;3.27;;;2.20;;
23001;SDS011;11667;51.706;4.856;2023-05-10T12:28:05;3.98;;;2.02;;
23001;SDS011;11667;51.706;4.856;2023-05-10T12:30:36;4.12;;;2.50;;
23001;SDS011;11667;51.706;4.856;2023-05-10T12:35:44;5.85;;;2.42;;
23001;SDS011;11667;51.706;4.856;2023-05-10T12:41:08;5.42;;;2.50;;
23001;SDS011;11667;51.706;4.856;2023-05-10T12:43:38;5.07;;;1.83;;
23001;SDS011;11667;51.706;4.856;2023-05-10T12:46:09;2.67;;;2.00;;
23001;SDS011;11667;51.706;4.856;2023-05-10T12:48:40;4.97;;;2.30;;
23001;SDS011;11667;51.706;4.856;2023-05-10T12:51:10;5.05;;;2.12;;
23001;SDS011;11667;51.706;4.856;2023-05-10T12:53:41;4.30;;;2.10;;
23001;SDS011;11667;51.706;4.856;2023-05-10T12:56:14;5.08;;;2.00;;
23001;SDS011;11667;51.706;4.856;2023-05-10T12:58:43;3.45;;;1.70;;
23001;SDS011;11667;51.706;4.856;2023-05-10T13:01:14;2.12;;;1.70;;
23001;SDS011;11667;51.706;4.856;2023-05-10T13:03:44;4.22;;;1.90;;
23001;SDS011;11667;51.706;4.856;2023-05-10T13:06:14;2.42;;;1.60;;
23001;SDS011;11667;51.706;4.856;2023-05-10T13:08:44;4.65;;;1.75;;
23001;SDS011;11667;51.706;4.856;2023-05-10T13:11:13;4.90;;;1.60;;
23001;SDS011;11667;51.706;4.856;2023-05-10T13:13:44;2.70;;;1.37;;
23001;SDS011;11667;51.706;4.856;2023-05-10T13:16:14;3.33;;;1.65;;
23001;SDS011;11667;51.706;4.856;2023-05-10T13:18:43;2.12;;;1.37;;
23001;SDS011;11667;51.706;4.856;2023-05-10T13:21:12;3.52;;;1.70;;
23001;SDS011;11667;51.706;4.856;2023-05-10T13:23:42;3.47;;;1.85;;
23001;SDS011;11667;51.706;4.856;2023-05-10T13:29:14;5.30;;;1.50;;
23001;SDS011;11667;51.706;4.856;2023-05-10T13:31:46;1.90;;;1.30;;
23001;SDS011;11667;51.706;4.856;2023-05-10T13:34:16;2.70;;;1.52;;
23001;SDS011;11667;51.706;4.856;2023-05-10T13:36:47;2.77;;;1.57;;
23001;SDS011;11667;51.706;4.856;2023-05-10T13:39:17;2.35;;;1.50;;
23001;SDS011;11667;51.706;4.856;2023-05-10T13:41:46;2.50;;;1.50;;
23001;SDS011;11667;51.706;4.856;2023-05-10T13:44:16;3.33;;;1.10;;
23001;SDS011;11667;51.706;4.856;2023-05-10T13:46:45;2.75;;;1.40;;
23001;SDS011;11667;51.706;4.856;2023-05-10T13:49:15;2.27;;;1.22;;
23001;SDS011;11667;51.706;4.856;2023-05-10T13:51:44;1.92;;;1.20;;
23001;SDS011;11667;51.706;4.856;2023-05-10T13:54:14;2.22;;;1.12;;
23001;SDS011;11667;51.706;4.856;2023-05-10T13:56:45;2.45;;;1.30;;
23001;SDS011;11667;51.706;4.856;2023-05-10T13:59:15;1.87;;;1.32;;
23001;SDS011;11667;51.706;4.856;2023-05-10T14:01:44;2.10;;;1.40;;
23001;SDS011;11667;51.706;4.856;2023-05-10T14:04:14;2.50;;;1.50;;
23001;SDS011;11667;51.706;4.856;2023-05-10T14:06:43;1.50;;;1.20;;
23001;SDS011;11667;51.706;4.856;2023-05-10T14:09:13;2.50;;;1.35;;
23001;SDS011;11667;51.706;4.856;2023-05-10T14:11:42;3.15;;;1.27;;
23001;SDS011;11667;51.706;4.856;2023-05-10T14:14:12;2.72;;;1.20;;
23001;SDS011;11667;51.706;4.856;2023-05-10T14:16:49;2.42;;;1.27;;
23001;SDS011;11667;51.706;4.856;2023-05-10T14:19:13;2.47;;;1.50;;
23001;SDS011;11667;51.706;4.856;2023-05-10T14:21:43;1.77;;;1.40;;
23001;SDS011;11667;51.706;4.856;2023-05-10T14:24:12;2.65;;;1.32;;
23001;SDS011;11667;51.706;4.856;2023-05-10T14:26:42;2.42;;;1.30;;
23001;SDS011;11667;51.706;4.856;2023-05-10T14:29:12;1.90;;;1.15;;
23001;SDS011;11667;51.706;4.856;2023-05-10T14:31:42;3.05;;;1.15;;
23001;SDS011;11667;51.706;4.856;2023-05-10T14:34:11;2.40;;;1.50;;
23001;SDS011;11667;51.706;4.856;2023-05-10T14:36:41;4.53;;;1.50;;
23001;SDS011;11667;51.706;4.856;2023-05-10T14:39:10;2.83;;;1.42;;
23001;SDS011;11667;51.706;4.856;2023-05-10T14:41:41;2.58;;;1.25;;
23001;SDS011;11667;51.706;4.856;2023-05-10T14:44:12;3.75;;;1.32;;
23001;SDS011;11667;51.706;4.856;2023-05-10T14:46:43;2.45;;;1.42;;
23001;SDS011;11667;51.706;4.856;2023-05-10T14:49:12;4.62;;;1.35;;
23001;SDS011;11667;51.706;4.856;2023-05-10T14:51:42;2.65;;;1.20;;
23001;SDS011;11667;51.706;4.856;2023-05-10T14:54:12;2.83;;;1.47;;
23001;SDS011;11667;51.706;4.856;2023-05-10T14:56:42;3.98;;;2.17;;
23001;SDS011;11667;51.706;4.856;2023-05-10T14:59:12;3.08;;;1.40;;
23001;SDS011;11667;51.706;4.856;2023-05-10T15:01:42;3.00;;;1.60;;
23001;SDS011;11667;51.706;4.856;2023-05-10T15:04:12;2.02;;;1.32;;
23001;SDS011;11667;51.706;4.856;2023-05-10T15:06:43;2.58;;;1.80;;
23001;SDS011;11667;51.706;4.856;2023-05-10T15:09:13;3.02;;;1.60;;
23001;SDS011;11667;51.706;4.856;2023-05-10T15:11:43;3.80;;;1.60;;
23001;SDS011;11667;51.706;4.856;2023-05-10T15:14:13;4.00;;;1.62;;
23001;SDS011;11667;51.706;4.856;2023-05-10T15:16:42;4.35;;;1.72;;
23001;SDS011;11667;51.706;4.856;2023-05-10T15:19:11;3.87;;;1.85;;
23001;SDS011;11667;51.706;4.856;2023-05-10T15:21:41;2.55;;;1.47;;
23001;SDS011;11667;51.706;4.856;2023-05-10T15:24:12;2.62;;;1.40;;
23001;SDS011;11667;51.706;4.856;2023-05-10T15:26:42;5.40;;;2.10;;
23001;SDS011;11667;51.706;4.856;2023-05-10T15:29:11;3.58;;;1.40;;
23001;SDS011;11667;51.706;4.856;2023-05-10T15:31:42;3.25;;;1.60;;
23001;SDS011;11667;51.706;4.856;2023-05-10T15:34:12;3.75;;;1.47;;
23001;SDS011;11667;51.706;4.856;2023-05-10T15:36:41;2.65;;;1.62;;
23001;SDS011;11667;51.706;4.856;2023-05-10T15:39:11;3.35;;;1.70;;
23001;SDS011;11667;51.706;4.856;2023-05-10T15:41:41;2.50;;;1.60;;
23001;SDS011;11667;51.706;4.856;2023-05-10T15:44:11;2.70;;;1.50;;
23001;SDS011;11667;51.706;4.856;2023-05-10T15:46:40;2.62;;;1.62;;
23001;SDS011;11667;51.706;4.856;2023-05-10T15:49:10;2.80;;;1.95;;
23001;SDS011;11667;51.706;4.856;2023-05-10T15:51:40;6.03;;;2.20;;
23001;SDS011;11667;51.706;4.856;2023-05-10T15:54:09;6.87;;;2.58;;
23001;SDS011;11667;51.706;4.856;2023-05-10T15:56:39;5.15;;;3.20;;
23001;SDS011;11667;51.706;4.856;2023-05-10T15:59:08;5.87;;;3.50;;
23001;SDS011;11667;51.706;4.856;2023-05-10T16:01:38;4.65;;;3.10;;
23001;SDS011;11667;51.706;4.856;2023-05-10T16:04:08;6.17;;;3.42;;
23001;SDS011;11667;51.706;4.856;2023-05-10T16:06:37;9.00;;;4.00;;
23001;SDS011;11667;51.706;4.856;2023-05-10T16:09:07;7.87;;;3.95;;
23001;SDS011;11667;51.706;4.856;2023-05-10T16:11:37;6.58;;;3.90;;
23001;SDS011;11667;51.706;4.856;2023-05-10T16:14:06;5.47;;;3.62;;
23001;SDS011;11667;51.706;4.856;2023-05-10T16:16:36;8.23;;;4.30;;
23001;SDS011;11667;51.706;4.856;2023-05-10T16:19:05;7.37;;;4.17;;
23001;SDS011;11667;51.706;4.856;2023-05-10T16:21:35;8.88;;;4.35;;
23001;SDS011;11667;51.706;4.856;2023-05-10T16:24:04;10.40;;;4.53;;
23001;SDS011;11667;51.706;4.856;2023-05-10T16:26:34;7.83;;;4.35;;
23001;SDS011;11667;51.706;4.856;2023-05-10T16:29:11;8.53;;;4.58;;
23001;SDS011;11667;51.706;4.856;2023-05-10T16:31:36;6.92;;;4.25;;
23001;SDS011;11667;51.706;4.856;2023-05-10T16:34:05;10.03;;;4.65;;
23001;SDS011;11667;51.706;4.856;2023-05-10T16:36:35;8.03;;;4.37;;
23001;SDS011;11667;51.706;4.856;2023-05-10T16:39:05;9.70;;;4.72;;
23001;SDS011;11667;51.706;4.856;2023-05-10T16:41:36;8.60;;;4.70;;
23001;SDS011;11667;51.706;4.856;2023-05-10T16:44:05;8.60;;;4.35;;
23001;SDS011;11667;51.706;4.856;2023-05-10T16:46:35;9.38;;;5.20;;